Atlantic Tramp — V7SM5 — position and weather

sailwx.info

Track history (hours):
 
Tides and Currents Weather Stations Pressure Air Temp Water Temp Dewpoint Dewpoint Depression Visibility Wind Speed Wind Dir Waves Ship Positions

Atlantic Tramp

Last reported at 2014-Aug-14 06:33 UTC. Time now 2014-Aug-29 12:19 UTC.
Position N 36°39' W 008°45'.
Warning: this ship's position is 15 days out of date.

Length 180 m; draft 7.8 m.

Type: Cargo ship. MMSI: 538003682.

Date/timePositionNaut miles runAvg speedWind from/ knotsBaromVisibWave heightAir tempDewpointWater temp
2014-Aug-14 06:33N 36°39' W 008°45'1211.8
2014-Aug-14 05:33N 36°36' W 008°31'1212.1
2014-Aug-14 04:33N 36°32' W 008°17'1512.0
2014-Aug-14 03:18N 36°28' W 007°59'308 6.8
2014-Aug-12 06:10N 36°31' W 001°36'913.7
2014-Aug-12 05:32N 36°32' W 001°26'1413.9
2014-Aug-12 04:32N 36°35' W 001°09'1413.9
2014-Aug-12 03:33N 36°37' W 000°52'1413.6
2014-Aug-12 02:33N 36°40' W 000°36'1313.3
2014-Aug-12 01:33N 36°43' W 000°20'1413.3
2014-Aug-12 00:32N 36°45' W 000°03'1313.3
2014-Aug-11 23:33N 36°47' E 000°13'1413.5
2014-Aug-11 22:31N 36°50' E 000°30'1313.5
2014-Aug-11 21:33N 36°52' E 000°46'1413.8
2014-Aug-11 20:33N 36°54' E 001°03'1313.5
2014-Aug-11 19:33N 36°57' E 001°20'1313.2
2014-Aug-11 18:34N 36°59' E 001°36'1313.0
2014-Aug-11 17:34N 37°01' E 001°52'1312.7
2014-Aug-11 16:33N 37°04' E 002°08'1212.2
2014-Aug-11 15:33N 37°06' E 002°23'1312.8
2014-Aug-11 14:33N 37°08' E 002°38'1313.1
2014-Aug-11 13:34N 37°10' E 002°55'1413.6
2014-Aug-11 12:33N 37°13' E 003°12'1313.2
2014-Aug-11 11:33N 37°15' E 003°28'1413.5
2014-Aug-11 10:33N 37°18' E 003°44'1312.9
2014-Aug-11 09:33N 37°20' E 004°00'1413.8
2014-Aug-11 08:33N 37°22' E 004°18'1413.5
2014-Aug-11 07:33N 37°23' E 004°35'4413.8
2014-Aug-11 04:20N 37°29' E 005°30'1114.1
2014-Aug-11 03:33N 37°30' E 005°44'1414.1
2014-Aug-11 02:33N 37°31' E 006°02'1414.2
2014-Aug-11 01:33N 37°32' E 006°19'1413.7
2014-Aug-11 00:32N 37°34' E 006°37'1813.9
2014-Aug-10 23:16N 37°36' E 006°59'1513.0
2014-Aug-10 22:09N 37°37' E 007°17'912.6
2014-Aug-10 21:25N 37°38' E 007°29'1313.3
2014-Aug-10 20:28N 37°40' E 007°45'1413.3
2014-Aug-10 19:27N 37°42' E 008°02'1213.1
2014-Aug-10 18:31N 37°43' E 008°17'1313.3
2014-Aug-10 17:30N 37°44' E 008°34'1212.7
2014-Aug-10 16:33N 37°45' E 008°49'1413.8
2014-Aug-10 15:32N 37°42' E 009°07'1312.3
2014-Aug-10 14:29N 37°41' E 009°23'1212.7
2014-Aug-10 13:34N 37°40' E 009°38'1312.8
2014-Aug-10 12:34N 37°40' E 009°54'1312.7
2014-Aug-10 11:34N 37°40' E 010°10'1312.8
2014-Aug-10 10:34N 37°37' E 010°26'1313.0
2014-Aug-10 09:33N 37°35' E 010°42'1313.2
2014-Aug-10 08:34N 37°31' E 010°58'1313.1
2014-Aug-10 07:34N 37°26' E 011°14'4213.2
2014-Aug-10 04:22N 37°05' E 011°59'1113.3
2014-Aug-10 03:33N 37°00' E 012°12'1313.3
2014-Aug-10 02:34N 36°55' E 012°27'1313.3
2014-Aug-10 01:33N 36°50' E 012°42'1313.2
2014-Aug-10 00:33N 36°46' E 012°58'1313.0
2014-Aug-09 23:33N 36°41' E 013°13'1313.1
2014-Aug-09 22:33N 36°37' E 013°28'1313.1
2014-Aug-09 21:33N 36°32' E 013°44'1313.2
2014-Aug-09 20:33N 36°28' E 013°59'1413.5
2014-Aug-09 19:29N 36°22' E 014°15'1313.5
2014-Aug-09 18:33N 36°17' E 014°30'1313.4
2014-Aug-09 17:33N 36°13' E 014°45'1313.2
2014-Aug-09 16:33N 36°09' E 015°01'1313.1
2014-Aug-09 15:33N 36°06' E 015°17'1313.2
2014-Aug-09 14:33N 36°01' E 015°32'  
2014-Aug-07 01:13N 32°32' E 030°38'912.7
2014-Aug-07 00:32N 32°29' E 030°48'1212.6
2014-Aug-06 23:33N 32°26' E 031°02'1212.2
2014-Aug-06 22:34N 32°22' E 031°16'6512.6
2014-Aug-06 17:22N 31°36' E 032°10'1012.2
2014-Aug-06 16:34N 31°30' E 032°19'  
Track history (hours):
 
Tides and Currents Weather Stations Pressure Air Temp Water Temp Dewpoint Dewpoint Depression Visibility Wind Speed Wind Dir Waves Ship Positions

Atlantic Tramp

Last reported at 2014-Aug-14 06:33 UTC. Time now 2014-Aug-29 12:19 UTC.
Position N 36°39' W 008°45'.
Warning: this ship's position is 15 days out of date.

Length 180 m; draft 7.8 m.

Type: Cargo ship. MMSI: 538003682.

Date/timePositionNaut miles runAvg speedWind from/ knotsBaromVisibWave heightAir tempDewpointWater temp
2014-Aug-14 06:33N 36°39' W 008°45'1211.8
2014-Aug-14 05:33N 36°36' W 008°31'1212.1
2014-Aug-14 04:33N 36°32' W 008°17'1512.0
2014-Aug-14 03:18N 36°28' W 007°59'308 6.8
2014-Aug-12 06:10N 36°31' W 001°36'913.7
2014-Aug-12 05:32N 36°32' W 001°26'1413.9
2014-Aug-12 04:32N 36°35' W 001°09'1413.9
2014-Aug-12 03:33N 36°37' W 000°52'1413.6
2014-Aug-12 02:33N 36°40' W 000°36'1313.3
2014-Aug-12 01:33N 36°43' W 000°20'1413.3
2014-Aug-12 00:32N 36°45' W 000°03'1313.3
2014-Aug-11 23:33N 36°47' E 000°13'1413.5
2014-Aug-11 22:31N 36°50' E 000°30'1313.5
2014-Aug-11 21:33N 36°52' E 000°46'1413.8
2014-Aug-11 20:33N 36°54' E 001°03'1313.5
2014-Aug-11 19:33N 36°57' E 001°20'1313.2
2014-Aug-11 18:34N 36°59' E 001°36'1313.0
2014-Aug-11 17:34N 37°01' E 001°52'1312.7
2014-Aug-11 16:33N 37°04' E 002°08'1212.2
2014-Aug-11 15:33N 37°06' E 002°23'1312.8
2014-Aug-11 14:33N 37°08' E 002°38'1313.1
2014-Aug-11 13:34N 37°10' E 002°55'1413.6
2014-Aug-11 12:33N 37°13' E 003°12'1313.2
2014-Aug-11 11:33N 37°15' E 003°28'1413.5
2014-Aug-11 10:33N 37°18' E 003°44'1312.9
2014-Aug-11 09:33N 37°20' E 004°00'1413.8
2014-Aug-11 08:33N 37°22' E 004°18'1413.5
2014-Aug-11 07:33N 37°23' E 004°35'4413.8
2014-Aug-11 04:20N 37°29' E 005°30'1114.1
2014-Aug-11 03:33N 37°30' E 005°44'1414.1
2014-Aug-11 02:33N 37°31' E 006°02'1414.2
2014-Aug-11 01:33N 37°32' E 006°19'1413.7
2014-Aug-11 00:32N 37°34' E 006°37'1813.9
2014-Aug-10 23:16N 37°36' E 006°59'1513.0
2014-Aug-10 22:09N 37°37' E 007°17'912.6
2014-Aug-10 21:25N 37°38' E 007°29'1313.3
2014-Aug-10 20:28N 37°40' E 007°45'1413.3
2014-Aug-10 19:27N 37°42' E 008°02'1213.1
2014-Aug-10 18:31N 37°43' E 008°17'1313.3
2014-Aug-10 17:30N 37°44' E 008°34'1212.7
2014-Aug-10 16:33N 37°45' E 008°49'1413.8
2014-Aug-10 15:32N 37°42' E 009°07'1312.3
2014-Aug-10 14:29N 37°41' E 009°23'1212.7
2014-Aug-10 13:34N 37°40' E 009°38'1312.8
2014-Aug-10 12:34N 37°40' E 009°54'1312.7
2014-Aug-10 11:34N 37°40' E 010°10'1312.8
2014-Aug-10 10:34N 37°37' E 010°26'1313.0
2014-Aug-10 09:33N 37°35' E 010°42'1313.2
2014-Aug-10 08:34N 37°31' E 010°58'1313.1
2014-Aug-10 07:34N 37°26' E 011°14'4213.2
2014-Aug-10 04:22N 37°05' E 011°59'1113.3
2014-Aug-10 03:33N 37°00' E 012°12'1313.3
2014-Aug-10 02:34N 36°55' E 012°27'1313.3
2014-Aug-10 01:33N 36°50' E 012°42'1313.2
2014-Aug-10 00:33N 36°46' E 012°58'1313.0
2014-Aug-09 23:33N 36°41' E 013°13'1313.1
2014-Aug-09 22:33N 36°37' E 013°28'1313.1
2014-Aug-09 21:33N 36°32' E 013°44'1313.2
2014-Aug-09 20:33N 36°28' E 013°59'1413.5
2014-Aug-09 19:29N 36°22' E 014°15'1313.5
2014-Aug-09 18:33N 36°17' E 014°30'1313.4
2014-Aug-09 17:33N 36°13' E 014°45'1313.2
2014-Aug-09 16:33N 36°09' E 015°01'1313.1
2014-Aug-09 15:33N 36°06' E 015°17'1313.2
2014-Aug-09 14:33N 36°01' E 015°32'  
2014-Aug-07 01:13N 32°32' E 030°38'912.7
2014-Aug-07 00:32N 32°29' E 030°48'1212.6
2014-Aug-06 23:33N 32°26' E 031°02'1212.2
2014-Aug-06 22:34N 32°22' E 031°16'6512.6
2014-Aug-06 17:22N 31°36' E 032°10'1012.2
2014-Aug-06 16:34N 31°30' E 032°19'  

Dump ship's entire track history